createdAt,value
2018-04-16T00:00:57.720Z,96.04
2018-04-16T00:02:24.995Z,95.81
2018-04-16T00:03:52.397Z,95.76
2018-04-16T00:05:19.731Z,95.75
2018-04-16T00:06:47.064Z,95.58
2018-04-16T00:08:18.309Z,95.70
2018-04-16T00:09:45.628Z,95.38
2018-04-16T00:11:08.856Z,95.34
2018-04-16T00:12:36.104Z,95.17
2018-04-16T00:14:03.368Z,94.96
2018-04-16T00:15:30.560Z,94.84
2018-04-16T00:17:01.842Z,95.51
2018-04-16T00:18:29.132Z,95.28
2018-04-16T00:19:52.451Z,94.98
2018-04-16T00:21:23.568Z,94.67
2018-04-16T00:22:46.755Z,95.13
2018-04-16T00:24:17.765Z,96.08
2018-04-16T00:25:45.077Z,96.63
2018-04-16T00:27:08.305Z,97.25
2018-04-16T00:28:35.554Z,97.76
2018-04-16T00:30:02.878Z,97.74
2018-04-16T00:31:34.298Z,97.80
2018-04-16T00:32:57.513Z,97.78
2018-04-16T00:34:28.867Z,97.76
2018-04-16T00:35:56.142Z,98.02
2018-04-16T00:37:19.211Z,98.02
2018-04-16T00:38:46.533Z,98.31
2018-04-16T00:40:13.689Z,98.35
2018-04-16T00:41:40.881Z,98.13
2018-04-16T00:43:08.036Z,97.81
2018-04-16T00:44:35.489Z,97.76
2018-04-16T00:46:06.817Z,97.44
2018-04-16T00:47:34.307Z,97.21
2018-04-16T00:49:05.418Z,96.96
2018-04-16T00:50:28.641Z,96.89
2018-04-16T00:51:56.032Z,96.68
2018-04-16T00:53:23.310Z,96.72
2018-04-16T00:54:46.538Z,96.42
2018-04-16T00:56:13.758Z,96.35
2018-04-16T00:57:44.900Z,95.99
2018-04-16T00:59:12.256Z,95.75
2018-04-16T01:00:39.229Z,95.91
2018-04-16T01:02:02.552Z,96.15
2018-04-16T01:03:29.772Z,96.26
2018-04-16T01:04:57.101Z,96.36
2018-04-16T01:06:24.477Z,96.27
2018-04-16T01:07:51.885Z,95.88
2018-04-16T01:09:19.288Z,96.55
2018-04-16T01:10:46.591Z,96.50
2018-04-16T01:12:17.907Z,96.29
2018-04-16T01:13:41.021Z,96.07
2018-04-16T01:15:08.396Z,96.12
2018-04-16T01:16:35.542Z,95.94
2018-04-16T01:18:02.693Z,96.07
2018-04-16T01:19:29.731Z,95.84
2018-04-16T01:20:56.914Z,95.92
2018-04-16T01:22:24.135Z,95.99
2018-04-16T01:23:51.462Z,96.07
2018-04-16T01:25:18.776Z,95.87
2018-04-16T01:26:50.206Z,96.03
2018-04-16T01:28:13.509Z,95.77
2018-04-16T01:29:40.740Z,95.60
2018-04-16T01:31:11.948Z,95.94
2018-04-16T01:32:39.086Z,96.14
2018-04-16T01:34:02.531Z,96.07
2018-04-16T01:35:29.771Z,96.16
2018-04-16T01:36:56.972Z,95.94
2018-04-16T01:38:24.509Z,95.78
2018-04-16T01:39:51.809Z,95.74
2018-04-16T01:41:23.024Z,95.72
2018-04-16T01:42:50.243Z,96.01
2018-04-16T01:44:13.609Z,96.20
2018-04-16T01:45:40.911Z,96.55
2018-04-16T01:47:12.038Z,96.55
2018-04-16T01:48:35.529Z,96.67
2018-04-16T01:50:07.004Z,97.04
2018-04-16T01:51:34.200Z,96.43
2018-04-16T01:54:24.869Z,96.25
2018-04-16T01:55:52.175Z,96.35
2018-04-16T01:57:19.492Z,96.52
2018-04-16T01:58:46.794Z,96.62
2018-04-16T02:00:17.859Z,96.92
2018-04-16T02:01:40.886Z,97.04
2018-04-16T02:03:08.210Z,97.56
2018-04-16T02:04:35.260Z,97.46
2018-04-16T02:06:02.393Z,97.37
2018-04-16T02:07:29.792Z,97.14
2018-04-16T02:09:01.052Z,97.02
2018-04-16T02:10:24.411Z,97.07
2018-04-16T02:11:55.689Z,97.03
2018-04-16T02:13:22.905Z,97.48
2018-04-16T02:14:46.082Z,97.34
2018-04-16T02:16:13.475Z,97.33
2018-04-16T02:17:44.801Z,97.53
2018-04-16T02:19:08.076Z,97.77
2018-04-16T02:20:35.570Z,97.83
2018-04-16T02:22:02.884Z,98.16
2018-04-16T02:23:34.262Z,98.33
2018-04-16T02:24:57.590Z,98.19
2018-04-16T02:26:24.777Z,98.22
2018-04-16T02:27:56.023Z,98.47
2018-04-16T02:29:19.362Z,98.31
2018-04-16T02:30:50.632Z,98.70
2018-04-16T02:32:17.899Z,98.49
2018-04-16T02:33:41.327Z,98.54
2018-04-16T02:35:12.873Z,98.33
2018-04-16T02:36:35.954Z,98.33
2018-04-16T02:38:07.050Z,98.36
2018-04-16T02:39:34.394Z,98.53
2018-04-16T02:40:57.868Z,98.70
2018-04-16T02:42:28.907Z,98.78
2018-04-16T02:43:56.239Z,98.83
2018-04-16T02:45:19.410Z,99.07
2018-04-16T02:46:50.751Z,99.10
2018-04-16T02:48:13.857Z,99.11
2018-04-16T02:49:41.174Z,99.10
2018-04-16T02:51:12.436Z,99.12
2018-04-16T02:52:39.602Z,99.18
2018-04-16T02:54:02.969Z,99.30
2018-04-16T02:55:30.234Z,99.41
2018-04-16T02:57:01.533Z,99.49
2018-04-16T02:58:24.857Z,99.58
2018-04-16T02:59:56.225Z,99.67
2018-04-16T03:01:23.317Z,99.83
2018-04-16T03:02:50.626Z,99.99
2018-04-16T03:04:13.867Z,99.84
2018-04-16T03:05:45.231Z,99.67
2018-04-16T03:07:08.521Z,99.72
2018-04-16T03:08:35.399Z,99.96
2018-04-16T03:10:06.711Z,99.88
2018-04-16T03:11:34.146Z,99.52
2018-04-16T03:13:01.390Z,99.74
2018-04-16T03:14:24.857Z,99.85
2018-04-16T03:15:52.087Z,99.42
2018-04-16T03:17:23.262Z,99.46
2018-04-16T03:18:50.640Z,99.44
2018-04-16T03:20:13.979Z,99.35
2018-04-16T03:21:45.264Z,99.23
2018-04-16T03:23:08.733Z,99.24
2018-04-16T03:24:35.905Z,99.37
2018-04-16T03:26:03.230Z,99.22
2018-04-16T03:27:30.412Z,99.10
2018-04-16T03:28:57.775Z,99.03
2018-04-16T03:30:25.009Z,98.95
2018-04-16T03:31:52.345Z,99.04
2018-04-16T03:33:23.698Z,99.13
2018-04-16T03:34:46.881Z,99.28
2018-04-16T03:36:18.113Z,99.35
2018-04-16T03:37:41.507Z,99.33
2018-04-16T03:39:08.712Z,99.39
2018-04-16T03:40:35.957Z,99.62
2018-04-16T03:42:03.265Z,99.46
2018-04-16T03:43:30.569Z,99.62
2018-04-16T03:44:57.831Z,99.69
2018-04-16T03:46:25.181Z,99.67
2018-04-16T03:47:52.473Z,99.73
2018-04-16T03:49:19.689Z,99.88
2018-04-16T03:50:50.918Z,99.81
2018-04-16T03:52:14.149Z,99.87
2018-04-16T03:53:45.387Z,99.91
2018-04-16T03:55:12.590Z,100.00
2018-04-16T03:56:35.458Z,100.00
2018-04-16T03:58:02.697Z,100.00
2018-04-16T03:59:34.064Z,100.00
2018-04-16T04:01:01.331Z,100.00
2018-04-16T04:02:24.632Z,100.00
2018-04-16T04:03:55.917Z,100.00
2018-04-16T04:05:23.013Z,100.00
2018-04-16T04:06:50.351Z,100.00
2018-04-16T04:08:13.632Z,100.00
2018-04-16T04:09:40.959Z,100.00
2018-04-16T04:11:08.245Z,100.00
2018-04-16T04:12:39.237Z,100.00
2018-04-16T04:14:06.283Z,99.99
2018-04-16T04:15:33.563Z,100.00
2018-04-16T04:16:56.972Z,99.90
2018-04-16T04:18:24.243Z,99.84
2018-04-16T04:19:51.669Z,99.83
2018-04-16T04:21:22.870Z,100.00
2018-04-16T04:22:46.152Z,100.00
2018-04-16T04:24:17.399Z,100.00
2018-04-16T04:25:40.601Z,99.98
2018-04-16T04:27:11.845Z,100.00
2018-04-16T04:28:39.256Z,100.00
2018-04-16T04:30:06.403Z,100.00
2018-04-16T04:31:29.721Z,100.00
2018-04-16T04:33:00.951Z,100.00
2018-04-16T04:34:24.144Z,100.00
2018-04-16T04:35:55.524Z,100.00
2018-04-16T04:37:22.693Z,100.00
2018-04-16T04:38:46.019Z,100.00
2018-04-16T04:40:17.357Z,100.00
2018-04-16T04:41:44.658Z,100.00
2018-04-16T04:43:11.983Z,100.00
2018-04-16T04:44:35.296Z,100.00
2018-04-16T04:46:02.699Z,100.00
2018-04-16T04:47:29.784Z,100.00
2018-04-16T04:48:56.885Z,100.00
2018-04-16T04:50:28.325Z,100.00
2018-04-16T04:51:51.707Z,100.00
2018-04-16T04:53:19.019Z,100.00
2018-04-16T04:54:46.337Z,100.00
2018-04-16T04:56:13.493Z,100.00
2018-04-16T04:57:44.593Z,100.00
2018-04-16T04:59:07.700Z,100.00
2018-04-16T05:00:34.979Z,100.00
2018-04-16T05:02:02.266Z,100.00
2018-04-16T05:03:29.381Z,100.00
2018-04-16T05:04:56.587Z,100.00
2018-04-16T05:06:23.892Z,100.00
2018-04-16T05:07:55.129Z,100.00
2018-04-16T05:09:22.511Z,100.00
2018-04-16T05:10:45.872Z,100.00
2018-04-16T05:12:13.007Z,100.00
2018-04-16T05:13:40.250Z,100.00
2018-04-16T05:15:11.401Z,100.00
2018-04-16T05:16:38.770Z,100.00
2018-04-16T05:18:05.942Z,100.00
2018-04-16T05:19:29.295Z,100.00
2018-04-16T05:20:56.712Z,100.00
2018-04-16T05:22:28.062Z,100.00
2018-04-16T05:23:51.453Z,100.00
2018-04-16T05:25:22.664Z,100.00
2018-04-16T05:26:46.006Z,100.00
2018-04-16T05:28:13.409Z,100.00
2018-04-16T05:29:44.625Z,100.00
2018-04-16T05:31:07.789Z,100.00
2018-04-16T05:32:35.064Z,100.00
2018-04-16T05:34:02.360Z,100.00
2018-04-16T05:35:29.696Z,100.00
2018-04-16T05:36:56.814Z,100.00
2018-04-16T05:38:23.968Z,100.00
2018-04-16T05:39:55.284Z,100.00
2018-04-16T05:41:22.555Z,100.00
2018-04-16T05:42:45.773Z,100.00
2018-04-16T05:44:12.968Z,100.00
2018-04-16T05:45:44.233Z,100.00
2018-04-16T05:47:11.594Z,100.00
2018-04-16T05:48:34.928Z,99.58
2018-04-16T05:50:02.222Z,99.76
2018-04-16T05:51:29.613Z,99.90
2018-04-16T05:53:00.900Z,99.69
2018-04-16T05:54:28.241Z,99.52
2018-04-16T05:55:55.525Z,99.52
2018-04-16T05:57:18.782Z,99.21
2018-04-16T05:58:46.135Z,99.14
2018-04-16T06:00:13.587Z,99.68
2018-04-16T06:01:40.951Z,99.56
2018-04-16T06:03:12.174Z,99.63
2018-04-16T06:04:39.491Z,99.73
2018-04-16T06:06:06.735Z,99.55
2018-04-16T06:07:29.993Z,99.04
2018-04-16T06:08:57.212Z,98.53
2018-04-16T06:10:24.516Z,98.52
2018-04-16T06:11:51.901Z,98.73
2018-04-16T06:13:23.121Z,99.04
2018-04-16T06:14:46.567Z,98.98
2018-04-16T06:16:17.673Z,98.84
2018-04-16T06:17:40.996Z,99.16
2018-04-16T06:19:08.297Z,99.15
2018-04-16T06:20:35.286Z,99.81
2018-04-16T06:22:02.694Z,99.81
2018-04-16T06:23:29.943Z,99.85
2018-04-16T06:24:57.257Z,100.00
2018-04-16T06:26:28.615Z,100.00
2018-04-16T06:27:51.809Z,99.87
2018-04-16T06:29:23.164Z,99.04
2018-04-16T06:30:50.482Z,98.69
2018-04-16T06:32:13.648Z,98.94
2018-04-16T06:33:41.040Z,98.63
2018-04-16T06:35:07.985Z,98.45
2018-04-16T06:36:35.314Z,98.62
2018-04-16T06:38:06.702Z,98.75
2018-04-16T06:39:29.934Z,98.94
2018-04-16T06:40:57.280Z,98.99
2018-04-16T06:42:24.776Z,99.37
2018-04-16T06:43:52.062Z,98.94
2018-04-16T06:45:19.203Z,98.79
2018-04-16T06:46:50.243Z,99.05
2018-04-16T06:48:13.258Z,99.30
2018-04-16T06:49:44.434Z,98.93
2018-04-16T06:51:07.639Z,98.61
2018-04-16T06:52:34.989Z,98.37
2018-04-16T06:54:02.313Z,98.56
2018-04-16T06:55:33.671Z,98.50
2018-04-16T06:56:57.012Z,98.68
2018-04-16T06:58:24.177Z,98.59
2018-04-16T06:59:55.537Z,98.86
2018-04-16T07:01:18.705Z,98.86
2018-04-16T07:02:50.121Z,99.16
2018-04-16T07:04:17.405Z,98.65
2018-04-16T07:05:40.772Z,98.40
2018-04-16T07:07:12.058Z,98.71
2018-04-16T07:08:35.348Z,99.12
2018-04-16T07:10:02.711Z,98.70
2018-04-16T07:11:33.831Z,98.82
2018-04-16T07:13:01.198Z,98.91
2018-04-16T07:14:28.430Z,98.41
2018-04-16T07:15:51.774Z,97.43
2018-04-16T07:17:19.058Z,96.77
2018-04-16T07:18:46.309Z,97.15
2018-04-16T07:20:17.717Z,97.19
2018-04-16T07:21:40.941Z,96.78
2018-04-16T07:23:08.153Z,97.31
2018-04-16T07:24:35.647Z,97.39
2018-04-16T07:26:03.025Z,97.12
2018-04-16T07:27:30.412Z,97.00
2018-04-16T07:28:57.755Z,97.13
2018-04-16T07:30:25.073Z,96.99
2018-04-16T07:31:52.314Z,97.56
2018-04-16T07:33:19.796Z,97.66
2018-04-16T07:34:47.095Z,97.76
2018-04-16T07:36:18.481Z,97.62
2018-04-16T07:37:41.816Z,97.66
2018-04-16T07:39:08.941Z,97.84
2018-04-16T07:40:36.168Z,98.01
2018-04-16T07:42:03.389Z,98.08
2018-04-16T07:43:30.818Z,97.78
2018-04-16T07:45:01.944Z,97.72
2018-04-16T07:46:29.221Z,97.10
2018-04-16T07:47:52.390Z,96.80
2018-04-16T07:49:19.940Z,97.37
2018-04-16T07:50:51.042Z,96.83
2018-04-16T07:52:14.349Z,95.33
2018-04-16T07:53:45.504Z,95.46
2018-04-16T07:55:09.114Z,96.11
2018-04-16T07:56:35.959Z,95.70
2018-04-16T07:58:07.299Z,95.54
2018-04-16T07:59:30.580Z,95.87
2018-04-16T08:00:58.035Z,96.03
2018-04-16T08:02:29.273Z,95.91
2018-04-16T08:03:52.755Z,96.15
2018-04-16T08:05:23.994Z,95.83
2018-04-16T08:06:51.103Z,95.41
2018-04-16T08:08:14.260Z,95.69
2018-04-16T08:09:45.448Z,95.44
2018-04-16T08:11:08.623Z,95.64
2018-04-16T08:12:39.778Z,95.98
2018-04-16T08:14:03.160Z,96.25
2018-04-16T08:15:30.372Z,96.47
2018-04-16T08:17:01.626Z,95.84
2018-04-16T08:18:24.880Z,95.55
2018-04-16T08:19:52.149Z,96.06
2018-04-16T08:21:23.405Z,95.23
2018-04-16T08:22:46.693Z,95.76
2018-04-16T08:24:14.068Z,95.65
2018-04-16T08:25:45.290Z,95.26
2018-04-16T08:27:12.502Z,95.46
2018-04-16T08:28:35.573Z,95.11
2018-04-16T08:30:03.083Z,95.37
2018-04-16T08:31:30.192Z,95.23
2018-04-16T08:33:01.285Z,95.59
2018-04-16T08:34:28.627Z,95.26
2018-04-16T08:35:51.706Z,94.96
2018-04-16T08:37:23.102Z,94.01
2018-04-16T08:38:46.535Z,94.38
2018-04-16T08:40:13.626Z,95.18
2018-04-16T08:41:44.871Z,95.79
2018-04-16T08:43:12.278Z,94.51
2018-04-16T08:44:35.675Z,93.95
2018-04-16T08:46:03.031Z,94.35
2018-04-16T08:47:30.465Z,93.05
2018-04-16T08:49:01.834Z,94.09
2018-04-16T08:50:25.120Z,94.70
2018-04-16T08:51:52.416Z,94.60
2018-04-16T08:53:23.682Z,93.92
2018-04-16T08:54:46.808Z,94.28
2018-04-16T08:56:18.121Z,94.25
2018-04-16T08:57:41.384Z,94.47
2018-04-16T08:59:08.699Z,94.19
2018-04-16T09:00:39.919Z,93.94
2018-04-16T09:02:07.253Z,93.96
2018-04-16T09:03:30.731Z,94.72
2018-04-16T09:05:01.920Z,93.55
2018-04-16T09:06:25.123Z,93.73
2018-04-16T09:07:52.425Z,94.04
2018-04-16T09:09:19.639Z,94.25
2018-04-16T09:10:47.011Z,92.97
2018-04-16T09:12:18.292Z,93.97
2018-04-16T09:13:45.569Z,93.80
2018-04-16T09:15:13.105Z,93.29
2018-04-16T09:16:36.238Z,93.55
2018-04-16T09:18:03.468Z,93.53
2018-04-16T09:19:30.854Z,93.61
2018-04-16T09:21:02.289Z,93.08
2018-04-16T09:22:25.512Z,92.09
2018-04-16T09:23:52.863Z,92.80
2018-04-16T09:25:20.280Z,93.34
2018-04-16T09:26:51.596Z,91.83
2018-04-16T09:28:19.055Z,92.90
2018-04-16T09:29:46.316Z,93.22
2018-04-16T09:31:13.579Z,91.58
2018-04-16T09:32:40.675Z,92.58
2018-04-16T09:34:04.023Z,91.34
2018-04-16T09:35:31.458Z,90.52
2018-04-16T09:36:58.873Z,89.90
2018-04-16T09:38:26.272Z,91.96
2018-04-16T09:39:53.744Z,91.17
2018-04-16T09:41:21.103Z,90.52
2018-04-16T09:42:52.556Z,89.82
2018-04-16T09:44:19.978Z,89.32
2018-04-16T09:45:43.189Z,88.81
2018-04-16T09:47:10.548Z,89.69
2018-04-16T09:48:41.793Z,90.33
2018-04-16T09:50:09.129Z,90.64
2018-04-16T09:51:36.468Z,89.02
2018-04-16T09:52:59.949Z,87.61
2018-04-16T09:54:27.189Z,87.89
2018-04-16T09:55:58.798Z,88.05
2018-04-16T09:57:22.108Z,88.89
2018-04-16T09:58:49.381Z,88.59
2018-04-16T10:00:20.676Z,88.82
2018-04-16T10:01:43.878Z,88.50
2018-04-16T10:03:11.122Z,88.48
2018-04-16T10:04:38.609Z,88.06
2018-04-16T10:06:05.694Z,87.31
2018-04-16T10:07:32.858Z,88.23
2018-04-16T10:09:00.210Z,89.18
2018-04-16T10:10:31.408Z,88.80
2018-04-16T10:11:58.688Z,88.89
2018-04-16T10:13:21.993Z,89.17
2018-04-16T10:14:49.356Z,87.87
2018-04-16T10:16:20.660Z,87.03
2018-04-16T10:17:48.016Z,87.83
2018-04-16T10:19:15.258Z,88.54
2018-04-16T10:20:38.483Z,86.36
2018-04-16T10:22:05.744Z,85.79
2018-04-16T10:23:32.957Z,87.40
2018-04-16T10:25:00.245Z,87.50
2018-04-16T10:26:31.684Z,86.69
2018-04-16T10:27:58.977Z,86.10
2018-04-16T10:29:22.349Z,86.42
2018-04-16T10:30:49.607Z,87.44
2018-04-16T10:32:17.027Z,88.19
2018-04-16T10:33:48.145Z,85.92
2018-04-16T10:35:11.499Z,85.82
2018-04-16T10:36:38.839Z,86.15
2018-04-16T10:38:10.084Z,85.48
2018-04-16T10:39:33.374Z,86.11
2018-04-16T10:41:00.877Z,85.38
2018-04-16T10:42:28.282Z,85.87
2018-04-16T10:43:55.591Z,84.36
2018-04-16T10:45:27.088Z,84.11
2018-04-16T10:46:54.200Z,85.65
2018-04-16T10:48:17.553Z,83.78
2018-04-16T10:49:44.906Z,83.92
2018-04-16T10:51:16.232Z,84.55
2018-04-16T10:52:39.633Z,84.10
2018-04-16T10:54:06.943Z,83.05
2018-04-16T10:55:38.375Z,82.38
2018-04-16T10:57:01.781Z,86.07
2018-04-16T10:58:33.090Z,84.66
2018-04-16T10:59:56.472Z,85.70
2018-04-16T11:01:23.757Z,82.74
2018-04-16T11:02:55.066Z,82.39
2018-04-16T11:04:18.487Z,83.61
2018-04-16T11:05:45.779Z,84.25
2018-04-16T11:07:17.039Z,84.08
2018-04-16T11:08:44.265Z,80.87
2018-04-16T11:10:07.685Z,82.58
2018-04-16T11:11:35.143Z,82.16
2018-04-16T11:13:02.618Z,81.87
2018-04-16T11:14:30.099Z,82.13
2018-04-16T11:16:01.539Z,81.58
2018-04-16T11:17:24.913Z,82.03
2018-04-16T11:18:52.329Z,84.56
2018-04-16T11:20:19.679Z,84.07
2018-04-16T11:21:47.146Z,83.00
2018-04-16T11:23:18.330Z,82.78
2018-04-16T11:24:41.763Z,82.02
2018-04-16T11:26:13.093Z,82.19
2018-04-16T11:27:40.398Z,81.90
2018-04-16T11:29:07.874Z,80.22
2018-04-16T11:30:31.264Z,82.12
2018-04-16T11:31:58.650Z,82.03
2018-04-16T11:33:26.060Z,80.66
2018-04-16T11:34:53.318Z,81.51
2018-04-16T11:36:24.650Z,81.54
2018-04-16T11:37:47.993Z,81.21
2018-04-16T11:39:19.178Z,80.12
2018-04-16T11:40:42.459Z,82.08
2018-04-16T11:42:13.967Z,81.36
2018-04-16T11:43:37.329Z,80.03
2018-04-16T11:45:08.756Z,77.92
2018-04-16T11:46:32.187Z,77.33
2018-04-16T11:48:03.559Z,78.52
2018-04-16T11:49:27.029Z,79.11
2018-04-16T11:50:54.344Z,80.31
2018-04-16T11:52:25.714Z,80.24
2018-04-16T11:53:49.047Z,79.98
2018-04-16T11:55:20.477Z,79.04
2018-04-16T11:56:47.912Z,80.06
2018-04-16T11:58:15.047Z,78.76
2018-04-16T11:59:38.407Z,77.86
2018-04-16T12:01:09.649Z,78.88
2018-04-16T12:02:33.024Z,80.42
2018-04-16T12:04:04.321Z,78.71
2018-04-16T12:05:27.804Z,78.09
2018-04-16T12:06:55.362Z,79.68
2018-04-16T12:08:26.808Z,78.56
2018-04-16T12:09:50.361Z,77.59
2018-04-16T12:11:21.684Z,78.12
2018-04-16T12:12:49.058Z,78.75
2018-04-16T12:14:12.313Z,77.90
2018-04-16T12:15:43.888Z,78.38
2018-04-16T12:17:07.298Z,78.40
2018-04-16T12:18:38.803Z,78.47
2018-04-16T12:20:02.293Z,78.62
2018-04-16T12:21:33.656Z,79.70
2018-04-16T12:22:57.029Z,77.83
2018-04-16T12:24:24.621Z,78.45
2018-04-16T12:25:51.766Z,79.49
2018-04-16T12:27:19.293Z,77.08
2018-04-16T12:28:50.539Z,76.35
2018-04-16T12:30:13.877Z,76.93
2018-04-16T12:31:45.242Z,76.87
2018-04-16T12:33:08.732Z,76.87
2018-04-16T12:34:35.919Z,75.66
2018-04-16T12:36:03.280Z,77.14
2018-04-16T12:37:30.643Z,75.52
2018-04-16T12:38:58.196Z,73.91
2018-04-16T12:40:25.719Z,74.23
2018-04-16T12:41:53.211Z,74.01
2018-04-16T12:43:24.680Z,73.96
2018-04-16T12:44:48.011Z,74.68
2018-04-16T12:46:15.364Z,76.52
2018-04-16T12:47:42.784Z,76.41
2018-04-16T12:49:10.222Z,75.12
2018-04-16T12:50:37.554Z,75.97
2018-04-16T12:52:04.962Z,76.26
2018-04-16T12:53:36.382Z,76.72
2018-04-16T12:54:59.852Z,75.94
2018-04-16T12:56:27.304Z,77.33
2018-04-16T12:57:54.541Z,79.28
2018-04-16T12:59:21.863Z,77.62
2018-04-16T13:00:53.313Z,77.57
2018-04-16T13:02:16.617Z,76.60
2018-04-16T13:03:44.103Z,77.67
2018-04-16T13:05:15.218Z,78.42
2018-04-16T13:06:38.695Z,79.45
2018-04-16T13:08:05.918Z,78.25
2018-04-16T13:09:33.268Z,78.56
2018-04-16T13:11:00.648Z,79.39
2018-04-16T13:12:28.124Z,76.24
2018-04-16T13:13:55.594Z,78.91
2018-04-16T13:15:22.879Z,78.07
2018-04-16T13:16:50.295Z,76.50
2018-04-16T13:18:17.776Z,77.01
2018-04-16T13:19:45.103Z,77.75
2018-04-16T13:21:12.584Z,77.25
2018-04-16T13:22:39.874Z,79.28
2018-04-16T13:24:07.284Z,79.09
2018-04-16T13:25:34.889Z,78.36
2018-04-16T13:27:02.229Z,76.31
2018-04-16T13:28:29.631Z,76.84
2018-04-16T13:30:01.169Z,79.64
2018-04-16T13:31:24.593Z,77.01
2018-04-16T13:32:55.991Z,79.16
2018-04-16T13:34:19.468Z,78.70
2018-04-16T13:35:46.843Z,77.50
2018-04-16T13:37:14.367Z,77.54
2018-04-16T13:38:45.695Z,78.44
2018-04-16T13:40:09.088Z,79.30
2018-04-16T13:41:40.326Z,80.24
2018-04-16T13:43:03.795Z,80.59
2018-04-16T13:44:35.393Z,79.99
2018-04-16T13:45:58.825Z,78.97
2018-04-16T13:47:30.303Z,79.06
2018-04-16T13:48:53.492Z,78.66
2018-04-16T13:50:20.786Z,78.85
2018-04-16T13:51:48.426Z,78.21
2018-04-16T13:53:19.790Z,78.96
2018-04-16T13:54:43.219Z,78.90
2018-04-16T13:56:11.014Z,79.30
2018-04-16T13:57:38.326Z,78.08
2018-04-16T13:59:09.326Z,78.00
2018-04-16T14:00:36.834Z,79.11
2018-04-16T14:02:04.251Z,79.07
2018-04-16T14:03:31.731Z,78.38
2018-04-16T14:04:55.182Z,79.54
2018-04-16T14:06:22.597Z,80.00
2018-04-16T14:07:50.017Z,78.61
2018-04-16T14:09:17.446Z,78.79
2018-04-16T14:10:44.840Z,79.60
2018-04-16T14:12:12.321Z,80.08
2018-04-16T14:13:39.790Z,79.11
2018-04-16T14:15:06.871Z,79.29
2018-04-16T14:16:34.311Z,80.40
2018-04-16T14:18:05.641Z,79.28
2018-04-16T14:19:29.087Z,80.74
2018-04-16T14:20:56.402Z,79.92
2018-04-16T14:22:23.906Z,80.24
2018-04-16T14:23:51.073Z,78.97
2018-04-16T14:25:18.530Z,79.59
2018-04-16T14:26:45.972Z,79.25
2018-04-16T14:28:17.367Z,80.39
2018-04-16T14:29:40.758Z,80.30
2018-04-16T14:31:08.002Z,80.02
2018-04-16T14:32:39.336Z,80.04
2018-04-16T14:34:02.844Z,79.97
2018-04-16T14:35:30.005Z,80.31
2018-04-16T14:36:57.621Z,78.86
2018-04-16T14:38:28.994Z,80.01
2018-04-16T14:39:52.285Z,79.07
2018-04-16T14:41:19.473Z,79.42
2018-04-16T14:42:50.986Z,80.48
2018-04-16T14:44:14.440Z,80.10
2018-04-16T14:45:45.827Z,80.02
2018-04-16T14:47:09.169Z,79.99
2018-04-16T14:48:40.301Z,78.97
2018-04-16T14:50:03.822Z,79.53
2018-04-16T14:51:31.259Z,79.21
2018-04-16T14:53:02.603Z,79.26
2018-04-16T14:54:26.018Z,78.76
2018-04-16T14:55:53.458Z,78.68
2018-04-16T14:57:24.891Z,79.36
2018-04-16T14:58:52.169Z,80.18
2018-04-16T15:00:15.474Z,79.31
2018-04-16T15:01:42.848Z,78.92
2018-04-16T15:03:14.205Z,79.99
2018-04-16T15:04:37.677Z,79.86
2018-04-16T15:06:05.092Z,81.35
2018-04-16T15:07:32.361Z,81.54
2018-04-16T15:08:59.851Z,80.88
2018-04-16T15:10:27.306Z,80.27
2018-04-16T15:11:58.475Z,79.93
2018-04-16T15:13:22.009Z,80.86
2018-04-16T15:14:49.465Z,81.16
2018-04-16T15:16:20.955Z,80.97
2018-04-16T15:17:44.332Z,81.13
2018-04-16T15:19:11.864Z,80.20
2018-04-16T15:20:38.901Z,80.90
2018-04-16T15:22:10.341Z,81.72
2018-04-16T15:23:37.802Z,81.90
2018-04-16T15:25:01.396Z,81.83
2018-04-16T15:26:28.749Z,82.04
2018-04-16T15:27:56.183Z,82.34
2018-04-16T15:29:27.664Z,82.41
2018-04-16T15:30:55.119Z,83.24
2018-04-16T15:32:18.469Z,83.44
2018-04-16T15:33:45.792Z,83.00
2018-04-16T15:35:13.190Z,83.11
2018-04-16T15:36:40.327Z,83.08
2018-04-16T15:38:07.608Z,83.02
2018-04-16T15:39:39.089Z,82.93
2018-04-16T15:41:06.571Z,83.61
2018-04-16T15:42:29.963Z,83.75
2018-04-16T15:44:01.495Z,83.63
2018-04-16T15:45:24.934Z,83.36
2018-04-16T15:46:52.241Z,84.25
2018-04-16T15:48:23.545Z,84.15
2018-04-16T15:49:47.026Z,84.51
2018-04-16T15:51:18.299Z,85.11
2018-04-16T15:52:41.515Z,85.22
2018-04-16T15:54:08.919Z,84.28
2018-04-16T15:55:36.378Z,85.23
2018-04-16T15:57:07.526Z,84.56
2018-04-16T15:58:31.003Z,85.08
2018-04-16T15:59:58.422Z,85.66
2018-04-16T16:01:25.919Z,86.35
2018-04-16T16:02:57.242Z,87.06
2018-04-16T16:04:20.683Z,86.29
2018-04-16T16:05:52.126Z,86.61
2018-04-16T16:07:19.475Z,85.42
2018-04-16T16:08:42.543Z,85.34
2018-04-16T16:10:10.041Z,85.05
2018-04-16T16:11:37.426Z,85.96
2018-04-16T16:13:04.845Z,86.28
2018-04-16T16:14:31.824Z,86.94
2018-04-16T16:15:59.236Z,87.44
2018-04-16T16:17:26.533Z,86.87
2018-04-16T16:18:58.033Z,85.41
2018-04-16T16:20:21.567Z,85.62
2018-04-16T16:21:48.889Z,85.65
2018-04-16T16:23:20.314Z,84.74
2018-04-16T16:24:43.604Z,85.02
2018-04-16T16:26:15.203Z,84.64
2018-04-16T16:27:42.488Z,84.36
2018-04-16T16:29:09.771Z,84.23
2018-04-16T16:30:37.121Z,83.86
2018-04-16T16:32:04.313Z,83.99
2018-04-16T16:33:27.809Z,83.98
2018-04-16T16:34:54.808Z,84.05
2018-04-16T16:36:22.375Z,84.61
2018-04-16T16:37:49.094Z,83.66
2018-04-16T16:39:20.372Z,84.33
2018-04-16T16:40:43.338Z,83.53
2018-04-16T16:42:10.420Z,85.10
2018-04-16T16:43:41.887Z,84.11
2018-04-16T16:45:05.052Z,84.94
2018-04-16T16:46:32.443Z,84.74
2018-04-16T16:47:59.854Z,84.50
2018-04-16T16:49:26.575Z,85.20
2018-04-16T16:50:53.549Z,85.85
2018-04-16T16:52:24.633Z,85.35
2018-04-16T16:53:51.786Z,85.87
2018-04-16T16:55:15.119Z,85.35
2018-04-16T16:56:45.829Z,85.02
2018-04-16T16:58:09.299Z,85.13
2018-04-16T16:59:36.724Z,84.54
2018-04-16T17:01:08.210Z,84.90
2018-04-16T17:02:34.891Z,84.64
2018-04-16T17:04:02.184Z,85.06
2018-04-16T17:05:25.364Z,83.92
2018-04-16T17:06:52.444Z,84.02
2018-04-16T17:08:23.946Z,84.36
2018-04-16T17:09:46.980Z,84.88
2018-04-16T17:11:14.177Z,85.20
2018-04-16T17:12:44.718Z,85.28
2018-04-16T17:14:07.348Z,85.29
2018-04-16T17:15:34.523Z,85.41
2018-04-16T17:17:01.692Z,85.75
2018-04-16T17:18:29.051Z,86.22
2018-04-16T17:19:56.300Z,86.42
2018-04-16T17:21:27.495Z,86.76
2018-04-16T17:22:50.372Z,87.06
2018-04-16T17:24:17.692Z,87.03
2018-04-16T17:25:45.039Z,87.38
2018-04-16T17:27:12.515Z,87.98
2018-04-16T17:28:43.898Z,87.81
2018-04-16T17:30:06.874Z,88.00
2018-04-16T17:31:34.338Z,87.89
2018-04-16T17:33:01.715Z,88.04
2018-04-16T17:34:33.179Z,88.12
2018-04-16T17:36:00.248Z,88.27
2018-04-16T17:37:27.207Z,88.29
2018-04-16T17:38:50.437Z,88.57
2018-04-16T17:40:17.882Z,87.98
2018-04-16T17:41:49.103Z,87.81
2018-04-16T17:43:11.922Z,88.07
2018-04-16T17:44:39.380Z,88.53
2018-04-16T17:46:10.870Z,88.69
2018-04-16T17:47:38.128Z,89.29
2018-04-16T17:49:01.356Z,88.94
2018-04-16T17:50:32.763Z,88.61
2018-04-16T17:51:56.178Z,88.69
2018-04-16T17:53:23.201Z,88.92
2018-04-16T17:54:49.888Z,89.29
2018-04-16T17:56:21.223Z,89.64
2018-04-16T17:57:44.556Z,89.78
2018-04-16T17:59:12.042Z,90.30
2018-04-16T18:00:43.423Z,90.36
2018-04-16T18:02:10.808Z,89.93
2018-04-16T18:03:38.209Z,89.87
2018-04-16T18:05:05.641Z,89.76
2018-04-16T18:06:28.600Z,89.90
2018-04-16T18:08:00.152Z,90.13
2018-04-16T18:09:23.429Z,90.17
2018-04-16T18:10:54.843Z,90.08
2018-04-16T18:12:18.252Z,90.31
2018-04-16T18:13:49.548Z,90.33
2018-04-16T18:15:16.609Z,90.43
2018-04-16T18:16:40.203Z,90.48
2018-04-16T18:18:07.605Z,90.61
2018-04-16T18:19:34.852Z,90.69
2018-04-16T18:21:06.252Z,90.54
2018-04-16T18:22:29.731Z,90.66
2018-04-16T18:23:57.177Z,90.49
2018-04-16T18:25:28.550Z,90.93
2018-04-16T18:26:56.076Z,90.94
2018-04-16T18:28:23.589Z,91.15
2018-04-16T18:29:46.825Z,91.20
2018-04-16T18:31:14.007Z,91.25
2018-04-16T18:32:41.265Z,90.72
2018-04-16T18:34:12.683Z,90.97
2018-04-16T18:35:39.933Z,90.44
2018-04-16T18:37:08.328Z,90.32
2018-04-16T18:38:30.393Z,90.37
2018-04-16T18:39:57.431Z,90.82
2018-04-16T18:41:24.840Z,91.47
2018-04-16T18:42:52.112Z,91.70